Airfield :
LOGIN :

Register | Disclaimer

   EN    FR    IT 

 










Legend :    VFR   Marginal VFR   IFR   Intensive IFR   Very Intensive IFR
Visi :
Ceiling :
>= 8 km
>= 3000ft
5 to 8 km
1000 to 3000 ft
1500m to 5 km
500 to 1000 ft
800 to 1500m
200 to 500 ft
< 800m
< 200 ft
Symbols :   Thunderstorms  Fog  Heavy snow  Heavy precipitations  Wind > 20 kt
SIGMETs :     Misc.  Thunderstorms  Icing  Turbulence  Mountain Waves  Volcanic Ashes






- Airport Elevation : 302 ft
- IATA code : MAH


LEMH - Menorca

CURRENT METAR :
  • 250800Z 36011KT 330V030 CAVOK 21/12 Q1025

EXPIRED METARs :
  • 250730Z 36011KT 330V030 CAVOK 21/12 Q1025
  • 250700Z 36012KT 330V040 CAVOK 22/13 Q1025
  • 250630Z 01010KT CAVOK 20/13 Q1025
  • 250600Z 36007KT CAVOK 19/14 Q1025
  • 250530Z 35004KT CAVOK 18/15 Q1025

TAF TAF LEMH
Valid from the 25 at 03:00 until the 26 at 03:00 UTC


250200Z 2503/2603 34005KT CAVOK TX26/2512Z TN15/2506Z
BECMG 2506/2508 02015KT
BECMG 2517/2519 03005KT



MET'MAP, your aeronautical weather chart ! - Copyright ORBIFLY December 2007 - Disclaimer

ORBIFLY MET'MAP TEAM :

Programming & Development : Alexandra Zaïnal
Concept & original design : Baudouin d'Aumeries
Assistance for programming : Marc-Olivier Méhu
Technical & hardware support : Manuel Goepfert

Contact : metmap@orbifly.com




SOURCES & CREDITS :

   NOAA